Time;durP1;ratioP1;P1;durP2;ratioP2;P2;SDS_P1;SDS_P2;PMS_P1;PMS_P2;Temp;Humidity;BMP_temperature;BMP_pressure;BME280_temperature;BME280_humidity;BME280_pressure;Samples;Min_cycle;Max_cycle;Signal;HPM_P1;HPM_P2
2023/07/26 00:01:27;;;;;;;5.95;3.78;;;;;;;;;;5011545;28;20235;-86
2023/07/26 00:03:58;;;;;;;13.30;3.90;;;;;;;;;;5019635;28;20284;-87
2023/07/26 00:06:24;;;;;;;11.40;2.58;;;;;;;;;;5023196;28;20640;-88
2023/07/26 00:08:51;;;;;;;7.85;4.68;;;;;;;;;;5033166;28;20228;-88
2023/07/26 00:11:18;;;;;;;9.30;3.35;;;;;;;;;;5022712;28;20224;-86
2023/07/26 00:13:45;;;;;;;4.13;3.13;;;;;;;;;;5015918;28;20224;-88
2023/07/26 00:16:14;;;;;;;8.30;3.60;;;;;;;;;;5012408;28;20223;-86
2023/07/26 00:18:41;;;;;;;10.27;3.58;;;;;;;;;;5011364;28;20209;-86
2023/07/26 00:21:07;;;;;;;6.28;2.85;;;;;;;;;;5007692;28;20240;-87
2023/07/26 00:23:34;;;;;;;8.52;3.90;;;;;;;;;;5011147;28;20209;-87
2023/07/26 00:26:02;;;;;;;7.05;3.85;;;;;;;;;;5011999;28;20205;-88
2023/07/26 00:28:29;;;;;;;5.72;3.38;;;;;;;;;;5019498;28;20296;-86
2023/07/26 00:30:55;;;;;;;9.85;3.83;;;;;;;;;;5029283;28;20561;-86
2023/07/26 00:33:24;;;;;;;8.68;4.00;;;;;;;;;;5017551;28;20215;-86
2023/07/26 00:35:51;;;;;;;10.00;4.18;;;;;;;;;;5014669;28;20205;-87
2023/07/26 00:38:18;;;;;;;8.07;3.83;;;;;;;;;;5014666;28;20200;-86
2023/07/26 00:40:45;;;;;;;5.32;3.50;;;;;;;;;;5014934;28;20646;-87
2023/07/26 00:43:13;;;;;;;9.40;4.70;;;;;;;;;;5012958;28;20235;-87
2023/07/26 00:45:41;;;;;;;5.35;3.83;;;;;;;;;;5010822;28;20201;-88
2023/07/26 00:48:08;;;;;;;8.35;4.60;;;;;;;;;;5010681;28;20201;-87
2023/07/26 00:50:37;;;;;;;7.65;3.40;;;;;;;;;;5010330;28;20240;-88
2023/07/26 00:53:04;;;;;;;8.73;4.07;;;;;;;;;;5010092;28;20601;-87
2023/07/26 00:55:32;;;;;;;6.65;4.10;;;;;;;;;;5010426;28;20534;-87
2023/07/26 00:57:59;;;;;;;6.28;3.70;;;;;;;;;;5010602;28;20207;-88
2023/07/26 01:00:26;;;;;;;5.70;3.83;;;;;;;;;;5009576;28;20207;-87
2023/07/26 01:02:53;;;;;;;12.07;4.25;;;;;;;;;;5010307;28;20417;-87
2023/07/26 01:05:20;;;;;;;5.63;3.88;;;;;;;;;;5010258;28;20205;-87
2023/07/26 01:07:54;;;;;;;12.95;3.88;;;;;;;;;;5010309;28;20197;-87
2023/07/26 01:10:23;;;;;;;6.43;4.25;;;;;;;;;;5010541;28;20618;-87
2023/07/26 01:12:54;;;;;;;10.90;4.55;;;;;;;;;;5010492;28;20227;-87
2023/07/26 01:15:25;;;;;;;5.80;3.50;;;;;;;;;;5010132;28;20200;-88
2023/07/26 01:18:07;;;;;;;4.38;3.95;;;;;;;;;;5010497;28;20215;-87
2023/07/26 01:20:34;;;;;;;7.63;4.13;;;;;;;;;;5010014;28;20216;-86
2023/07/26 01:23:03;;;;;;;4.10;3.53;;;;;;;;;;5009791;28;20260;-87
2023/07/26 01:25:29;;;;;;;13.70;4.10;;;;;;;;;;5010974;28;20287;-86
2023/07/26 01:27:57;;;;;;;11.40;3.92;;;;;;;;;;5010937;28;20621;-87
2023/07/26 01:30:29;;;;;;;7.03;3.95;;;;;;;;;;5010053;28;20193;-87
2023/07/26 01:32:57;;;;;;;7.50;4.20;;;;;;;;;;5010234;28;20247;-87
2023/07/26 01:35:24;;;;;;;6.75;3.65;;;;;;;;;;5010308;28;20211;-88
2023/07/26 01:37:53;;;;;;;4.07;3.70;;;;;;;;;;5009777;28;20241;-87
2023/07/26 01:40:24;;;;;;;3.72;3.40;;;;;;;;;;5010238;28;20649;-87
2023/07/26 01:42:52;;;;;;;10.23;4.32;;;;;;;;;;5009972;28;20347;-86
2023/07/26 01:45:19;;;;;;;8.65;3.85;;;;;;;;;;5010179;28;20208;-87
2023/07/26 01:47:46;;;;;;;5.90;4.03;;;;;;;;;;5010087;28;20228;-87
2023/07/26 01:50:13;;;;;;;5.63;4.78;;;;;;;;;;5010155;28;20367;-87
2023/07/26 01:52:40;;;;;;;8.05;4.40;;;;;;;;;;5010388;28;20282;-87
2023/07/26 01:55:08;;;;;;;5.13;3.80;;;;;;;;;;5009966;28;20287;-87
2023/07/26 01:57:37;;;;;;;18.77;4.72;;;;;;;;;;5010060;28;20286;-87
2023/07/26 02:00:04;;;;;;;7.38;4.65;;;;;;;;;;5009783;28;20204;-87
2023/07/26 02:02:32;;;;;;;11.50;4.25;;;;;;;;;;5012813;28;20229;-87
2023/07/26 02:04:59;;;;;;;4.97;3.88;;;;;;;;;;5013994;28;20232;-88
2023/07/26 02:07:26;;;;;;;13.63;4.40;;;;;;;;;;5014205;28;20201;-87
2023/07/26 02:09:54;;;;;;;8.98;3.78;;;;;;;;;;5013372;28;20255;-87
2023/07/26 02:12:21;;;;;;;5.95;4.13;;;;;;;;;;5013356;28;20217;-88
2023/07/26 02:14:49;;;;;;;4.28;3.92;;;;;;;;;;5012891;28;20292;-87
2023/07/26 02:17:16;;;;;;;12.20;4.22;;;;;;;;;;5013283;28;20201;-87
2023/07/26 02:19:43;;;;;;;14.48;4.47;;;;;;;;;;5013534;28;20204;-87
2023/07/26 02:22:10;;;;;;;4.88;4.18;;;;;;;;;;5013601;28;20250;-87
2023/07/26 02:24:37;;;;;;;6.28;3.58;;;;;;;;;;5013254;28;20663;-87
2023/07/26 02:27:05;;;;;;;8.48;3.75;;;;;;;;;;5013628;28;20590;-87
2023/07/26 02:29:33;;;;;;;13.70;3.88;;;;;;;;;;5013439;28;20283;-88
2023/07/26 02:32:02;;;;;;;5.28;4.40;;;;;;;;;;5013765;28;20201;-88
2023/07/26 02:34:28;;;;;;;6.97;3.78;;;;;;;;;;5014487;28;20639;-88
2023/07/26 02:36:55;;;;;;;4.65;3.92;;;;;;;;;;5018010;28;20584;-87
2023/07/26 02:39:23;;;;;;;5.38;3.63;;;;;;;;;;5022730;28;20193;-87
2023/07/26 02:41:49;;;;;;;7.18;3.58;;;;;;;;;;5021046;28;20316;-86
2023/07/26 02:44:16;;;;;;;8.55;4.38;;;;;;;;;;5013813;28;20207;-87
2023/07/26 02:46:43;;;;;;;5.30;3.85;;;;;;;;;;5013690;28;20201;-88
2023/07/26 02:49:12;;;;;;;5.28;3.70;;;;;;;;;;5013517;28;20316;-88
2023/07/26 02:51:38;;;;;;;4.80;3.63;;;;;;;;;;5013152;28;20311;-87
2023/07/26 02:54:05;;;;;;;8.02;3.45;;;;;;;;;;5013808;28;20203;-86
2023/07/26 02:56:33;;;;;;;4.93;3.55;;;;;;;;;;5013331;28;20260;-86
2023/07/26 02:58:59;;;;;;;4.05;3.60;;;;;;;;;;5013300;28;20284;-88
2023/07/26 03:01:26;;;;;;;4.97;3.85;;;;;;;;;;5013662;28;20216;-87
2023/07/26 03:03:53;;;;;;;5.75;4.07;;;;;;;;;;5013204;28;20239;-87
2023/07/26 03:06:21;;;;;;;4.72;4.10;;;;;;;;;;5013710;28;20197;-87
2023/07/26 03:08:48;;;;;;;7.80;3.72;;;;;;;;;;5013153;28;20204;-87
2023/07/26 03:11:15;;;;;;;12.00;4.15;;;;;;;;;;5013339;28;20255;-87
2023/07/26 03:13:41;;;;;;;7.00;3.97;;;;;;;;;;5012877;28;20201;-87
2023/07/26 03:16:08;;;;;;;4.32;3.63;;;;;;;;;;5013497;28;20212;-87
2023/07/26 03:18:36;;;;;;;4.25;3.85;;;;;;;;;;5013075;28;20197;-88
2023/07/26 03:21:03;;;;;;;11.25;3.80;;;;;;;;;;5013868;28;20212;-88
2023/07/26 03:23:31;;;;;;;7.28;4.00;;;;;;;;;;5014055;28;20306;-87
2023/07/26 03:25:58;;;;;;;4.30;3.65;;;;;;;;;;5014483;28;20197;-86
2023/07/26 03:28:25;;;;;;;8.48;4.68;;;;;;;;;;5012729;28;20208;-87
2023/07/26 03:30:52;;;;;;;5.15;4.25;;;;;;;;;;5014575;28;20208;-87
2023/07/26 03:33:18;;;;;;;4.10;3.80;;;;;;;;;;5004694;28;20238;-87
2023/07/26 03:35:45;;;;;;;5.63;3.97;;;;;;;;;;5002363;28;20225;-89
2023/07/26 03:38:12;;;;;;;5.53;3.83;;;;;;;;;;5012734;28;20204;-88
2023/07/26 03:40:41;;;;;;;6.68;4.15;;;;;;;;;;5018896;28;20224;-87
2023/07/26 03:43:08;;;;;;;4.05;3.75;;;;;;;;;;5007081;28;20261;-87
2023/07/26 03:45:35;;;;;;;5.30;3.42;;;;;;;;;;4993580;28;20378;-87
2023/07/26 03:48:02;;;;;;;6.63;3.90;;;;;;;;;;4993639;28;20324;-88
2023/07/26 03:50:29;;;;;;;4.68;4.20;;;;;;;;;;5004197;28;20751;-87
2023/07/26 03:52:56;;;;;;;5.45;4.25;;;;;;;;;;5011354;28;20205;-86
2023/07/26 03:55:22;;;;;;;4.35;3.70;;;;;;;;;;5008781;28;20533;-88
2023/07/26 03:57:51;;;;;;;4.57;3.88;;;;;;;;;;5003632;28;20208;-89
2023/07/26 04:00:18;;;;;;;6.38;3.50;;;;;;;;;;4999613;28;20288;-88
2023/07/26 04:02:45;;;;;;;8.13;4.28;;;;;;;;;;4999442;28;20300;-87
2023/07/26 04:05:12;;;;;;;5.05;4.20;;;;;;;;;;5002127;28;20212;-88
2023/07/26 04:07:41;;;;;;;5.05;4.07;;;;;;;;;;4991835;28;20197;-88
2023/07/26 04:10:08;;;;;;;6.22;4.45;;;;;;;;;;4991748;28;20323;-88
2023/07/26 04:12:34;;;;;;;4.05;3.67;;;;;;;;;;5008370;28;20900;-87
2023/07/26 04:15:04;;;;;;;8.93;4.78;;;;;;;;;;4999245;28;20213;-88
2023/07/26 04:17:31;;;;;;;9.93;4.50;;;;;;;;;;5003248;28;20280;-88
2023/07/26 04:19:58;;;;;;;6.10;4.25;;;;;;;;;;5004744;28;20264;-87
2023/07/26 04:22:25;;;;;;;5.80;4.18;;;;;;;;;;5003367;28;20232;-87
2023/07/26 04:24:52;;;;;;;7.18;4.13;;;;;;;;;;5008392;28;20193;-86
2023/07/26 04:27:20;;;;;;;7.88;4.47;;;;;;;;;;5022389;28;20211;-88
2023/07/26 04:29:47;;;;;;;7.38;4.60;;;;;;;;;;5020980;28;20225;-86
2023/07/26 04:32:15;;;;;;;5.85;3.80;;;;;;;;;;5017426;28;20231;-87
2023/07/26 04:34:42;;;;;;;7.13;4.40;;;;;;;;;;5015621;28;20288;-87
2023/07/26 04:37:09;;;;;;;6.97;4.38;;;;;;;;;;5010148;28;20196;-87
2023/07/26 04:39:36;;;;;;;7.50;4.18;;;;;;;;;;5010638;28;20230;-86
2023/07/26 04:42:03;;;;;;;9.52;4.53;;;;;;;;;;5010904;28;20262;-86
2023/07/26 04:44:30;;;;;;;7.82;4.25;;;;;;;;;;5010770;28;20229;-86
2023/07/26 04:46:57;;;;;;;5.05;4.43;;;;;;;;;;5010553;28;20215;-86
2023/07/26 04:49:25;;;;;;;7.35;4.40;;;;;;;;;;5010866;28;20670;-87
2023/07/26 04:51:52;;;;;;;7.25;4.40;;;;;;;;;;5009649;28;20643;-87
2023/07/26 04:54:19;;;;;;;6.68;4.70;;;;;;;;;;5007579;28;20217;-86
2023/07/26 04:56:46;;;;;;;8.77;4.75;;;;;;;;;;4990883;28;20244;-89
2023/07/26 04:59:13;;;;;;;5.25;4.43;;;;;;;;;;4990592;28;20296;-88
2023/07/26 05:01:40;;;;;;;7.90;4.28;;;;;;;;;;4990246;28;20280;-85
2023/07/26 05:04:08;;;;;;;5.72;3.83;;;;;;;;;;4990623;28;20232;-85
2023/07/26 05:06:37;;;;;;;10.60;4.78;;;;;;;;;;4990632;28;20299;-87
2023/07/26 05:09:05;;;;;;;8.52;4.20;;;;;;;;;;4990523;28;20197;-86
2023/07/26 05:11:33;;;;;;;5.15;4.65;;;;;;;;;;4992255;28;20225;-90
2023/07/26 05:13:59;;;;;;;9.13;5.32;;;;;;;;;;4991297;28;20196;-89
2023/07/26 05:16:26;;;;;;;7.32;5.10;;;;;;;;;;4991025;28;20585;-87
2023/07/26 05:18:57;;;;;;;4.97;4.57;;;;;;;;;;4992013;28;20203;-89
2023/07/26 05:21:24;;;;;;;16.85;5.38;;;;;;;;;;4991123;28;20197;-88
2023/07/26 05:23:52;;;;;;;5.25;4.78;;;;;;;;;;4991308;28;20233;-88
2023/07/26 05:26:20;;;;;;;6.82;5.00;;;;;;;;;;5011853;28;20218;-88
2023/07/26 05:28:47;;;;;;;11.35;4.60;;;;;;;;;;5014905;28;20203;-89
2023/07/26 05:31:14;;;;;;;8.77;4.43;;;;;;;;;;5010348;28;20193;-89
2023/07/26 05:33:41;;;;;;;5.82;4.53;;;;;;;;;;5010770;28;20271;-88
2023/07/26 05:36:08;;;;;;;4.60;4.20;;;;;;;;;;5013340;28;20199;-89
2023/07/26 05:38:35;;;;;;;7.20;4.03;;;;;;;;;;5014522;28;20287;-89
2023/07/26 05:41:06;;;;;;;7.18;4.25;;;;;;;;;;5014002;28;20295;-88
2023/07/26 05:43:34;;;;;;;21.15;5.55;;;;;;;;;;5014192;28;20302;-89
2023/07/26 05:46:02;;;;;;;6.97;4.30;;;;;;;;;;5005382;28;20694;-89
2023/07/26 05:48:29;;;;;;;6.95;4.10;;;;;;;;;;5010680;28;20231;-91
2023/07/26 05:50:57;;;;;;;5.20;4.00;;;;;;;;;;5008138;28;20369;-89
2023/07/26 05:53:24;;;;;;;12.52;4.93;;;;;;;;;;5015008;28;20219;-89
2023/07/26 05:55:51;;;;;;;7.60;4.78;;;;;;;;;;5015293;28;20224;-90
2023/07/26 05:58:19;;;;;;;12.25;5.20;;;;;;;;;;5016299;28;20227;-91
2023/07/26 06:00:46;;;;;;;7.97;4.80;;;;;;;;;;5012540;28;20303;-90
2023/07/26 06:03:13;;;;;;;8.93;4.55;;;;;;;;;;5013084;28;20251;-90
2023/07/26 06:05:41;;;;;;;7.38;4.13;;;;;;;;;;5012229;28;21221;-90
2023/07/26 06:08:08;;;;;;;6.22;3.85;;;;;;;;;;4997630;28;20227;-87
2023/07/26 06:10:34;;;;;;;8.68;4.93;;;;;;;;;;4992239;28;20735;-86
2023/07/26 06:13:01;;;;;;;14.07;4.82;;;;;;;;;;4992351;28;20248;-87
2023/07/26 06:15:30;;;;;;;10.48;4.88;;;;;;;;;;4992202;28;20287;-85
2023/07/26 06:17:56;;;;;;;13.27;5.13;;;;;;;;;;4992274;28;20217;-87
2023/07/26 06:20:23;;;;;;;7.28;4.22;;;;;;;;;;4991676;28;20315;-86
2023/07/26 06:22:50;;;;;;;8.18;4.97;;;;;;;;;;4991567;28;20260;-86
2023/07/26 06:25:17;;;;;;;6.53;4.30;;;;;;;;;;4992613;28;20275;-87
2023/07/26 06:27:44;;;;;;;7.90;4.60;;;;;;;;;;4991783;28;20244;-87
2023/07/26 06:30:15;;;;;;;4.57;4.18;;;;;;;;;;4992705;28;20311;-86
2023/07/26 06:32:44;;;;;;;12.90;5.03;;;;;;;;;;4992633;28;20224;-87
2023/07/26 06:35:11;;;;;;;15.45;4.78;;;;;;;;;;5011649;28;20279;-86
2023/07/26 06:37:38;;;;;;;7.57;4.38;;;;;;;;;;5011551;28;20235;-87
2023/07/26 06:40:05;;;;;;;6.90;3.97;;;;;;;;;;5012208;28;20306;-85
2023/07/26 06:42:35;;;;;;;5.10;3.47;;;;;;;;;;5011591;28;20216;-86
2023/07/26 06:45:03;;;;;;;7.28;4.15;;;;;;;;;;5011319;28;20251;-86
2023/07/26 06:47:30;;;;;;;7.00;3.85;;;;;;;;;;5011505;28;20255;-86
2023/07/26 06:49:58;;;;;;;12.00;4.90;;;;;;;;;;5011454;28;20246;-86
2023/07/26 06:52:25;;;;;;;13.02;4.35;;;;;;;;;;5017934;28;20247;-85
2023/07/26 06:54:51;;;;;;;5.03;3.53;;;;;;;;;;5026709;28;20226;-85
2023/07/26 06:57:19;;;;;;;8.55;3.60;;;;;;;;;;5013564;28;20310;-86
2023/07/26 06:59:48;;;;;;;7.88;3.72;;;;;;;;;;5010658;28;20278;-86
2023/07/26 07:02:22;;;;;;;4.30;3.35;;;;;;;;;;5011554;28;20239;-88
2023/07/26 07:04:49;;;;;;;6.22;4.03;;;;;;;;;;5010317;28;20258;-88
2023/07/26 07:07:18;;;;;;;6.07;3.67;;;;;;;;;;5010883;28;20236;-88
2023/07/26 07:09:45;;;;;;;16.55;4.38;;;;;;;;;;5010896;28;20224;-88
2023/07/26 07:12:11;;;;;;;16.63;4.03;;;;;;;;;;5011346;28;20235;-87
2023/07/26 07:14:38;;;;;;;12.75;3.75;;;;;;;;;;5010353;28;20220;-86
2023/07/26 07:17:05;;;;;;;13.32;4.13;;;;;;;;;;5011123;28;20232;-88
2023/07/26 07:19:32;;;;;;;5.45;4.00;;;;;;;;;;5010315;28;20224;-87
2023/07/26 07:21:59;;;;;;;8.32;3.40;;;;;;;;;;5010537;28;20224;-88
2023/07/26 07:24:27;;;;;;;5.95;4.72;;;;;;;;;;5011042;28;20263;-89
2023/07/26 07:26:54;;;;;;;67.75;5.80;;;;;;;;;;5010819;28;20239;-87
2023/07/26 07:29:21;;;;;;;13.50;3.92;;;;;;;;;;5010280;28;20286;-87
2023/07/26 07:31:48;;;;;;;3.63;3.15;;;;;;;;;;5010387;28;20609;-86
2023/07/26 07:34:15;;;;;;;12.25;3.78;;;;;;;;;;5010297;28;20608;-86
2023/07/26 07:36:41;;;;;;;9.57;3.85;;;;;;;;;;5009866;28;20315;-87
2023/07/26 07:39:09;;;;;;;6.53;3.90;;;;;;;;;;5010521;28;20230;-87
2023/07/26 07:41:38;;;;;;;21.80;3.92;;;;;;;;;;5010498;28;20267;-86
2023/07/26 07:44:07;;;;;;;12.50;3.90;;;;;;;;;;5009456;28;20467;-85
2023/07/26 07:46:35;;;;;;;6.22;3.72;;;;;;;;;;5009808;28;20232;-86
2023/07/26 07:49:02;;;;;;;5.90;3.90;;;;;;;;;;5008294;28;20224;-87
2023/07/26 07:51:29;;;;;;;9.32;3.67;;;;;;;;;;5009301;28;20224;-87
2023/07/26 07:53:56;;;;;;;6.55;3.35;;;;;;;;;;5009399;28;20791;-86
2023/07/26 07:56:22;;;;;;;6.15;3.38;;;;;;;;;;5009914;28;20248;-86
2023/07/26 07:58:54;;;;;;;6.47;4.10;;;;;;;;;;5008307;28;20266;-87
2023/07/26 08:01:20;;;;;;;10.75;5.03;;;;;;;;;;5010552;28;20228;-87
2023/07/26 08:03:48;;;;;;;8.63;4.60;;;;;;;;;;5009829;28;20254;-87
2023/07/26 08:06:19;;;;;;;5.10;3.70;;;;;;;;;;5009219;28;20224;-86
2023/07/26 08:08:45;;;;;;;10.43;4.18;;;;;;;;;;5009907;28;20246;-88
2023/07/26 08:11:12;;;;;;;7.43;3.80;;;;;;;;;;5010372;28;20236;-87
2023/07/26 08:13:43;;;;;;;11.77;4.20;;;;;;;;;;5009867;28;20243;-87
2023/07/26 08:16:17;;;;;;;18.08;4.05;;;;;;;;;;5009292;28;20299;-87
2023/07/26 08:18:46;;;;;;;13.85;4.82;;;;;;;;;;5010360;28;20248;-86
2023/07/26 08:21:13;;;;;;;18.33;4.03;;;;;;;;;;5009088;28;20678;-88
2023/07/26 08:23:41;;;;;;;10.13;3.55;;;;;;;;;;5012041;28;20378;-87
2023/07/26 08:26:09;;;;;;;8.50;2.97;;;;;;;;;;5017545;28;20216;-89
2023/07/26 08:28:36;;;;;;;8.02;3.00;;;;;;;;;;5017645;28;20546;-86
2023/07/26 08:31:03;;;;;;;5.53;2.85;;;;;;;;;;5018171;28;20286;-88
2023/07/26 08:33:32;;;;;;;6.68;3.38;;;;;;;;;;5023675;28;20223;-87
2023/07/26 08:36:01;;;;;;;5.70;2.83;;;;;;;;;;5041853;28;20226;-87
2023/07/26 08:38:28;;;;;;;8.15;3.33;;;;;;;;;;5042084;28;20215;-87
2023/07/26 08:40:56;;;;;;;5.93;3.45;;;;;;;;;;5045152;28;20354;-88
2023/07/26 08:43:24;;;;;;;11.68;3.78;;;;;;;;;;5006958;28;20239;-86
2023/07/26 08:45:52;;;;;;;4.53;3.47;;;;;;;;;;5010848;28;20322;-85
2023/07/26 08:48:19;;;;;;;6.13;3.35;;;;;;;;;;5018312;28;20665;-88
2023/07/26 08:50:49;;;;;;;6.10;3.30;;;;;;;;;;5020479;28;20255;-86
2023/07/26 08:53:16;;;;;;;4.07;2.67;;;;;;;;;;5022101;28;20239;-85
2023/07/26 08:55:43;;;;;;;3.83;3.30;;;;;;;;;;5018378;28;20323;-85
2023/07/26 08:58:10;;;;;;;4.88;3.42;;;;;;;;;;5015424;28;20232;-85
2023/07/26 09:00:37;;;;;;;12.30;2.83;;;;;;;;;;5009131;28;20249;-86
2023/07/26 09:03:05;;;;;;;9.35;3.03;;;;;;;;;;5009508;28;20216;-86
2023/07/26 09:05:34;;;;;;;14.93;3.13;;;;;;;;;;5008964;28;20685;-89
2023/07/26 09:08:03;;;;;;;8.82;3.20;;;;;;;;;;5009556;28;20327;-88
2023/07/26 09:10:32;;;;;;;7.55;2.85;;;;;;;;;;5010703;28;20216;-87
2023/07/26 09:13:08;;;;;;;8.15;3.28;;;;;;;;;;5013516;28;20305;-88
2023/07/26 09:15:36;;;;;;;4.30;2.40;;;;;;;;;;5018066;28;20228;-88
2023/07/26 09:18:03;;;;;;;15.00;3.10;;;;;;;;;;5023733;28;20600;-87
2023/07/26 09:20:31;;;;;;;3.75;2.55;;;;;;;;;;5024396;28;20224;-86
2023/07/26 09:23:00;;;;;;;12.32;3.33;;;;;;;;;;5018287;28;20231;-88
2023/07/26 09:25:36;;;;;;;4.05;3.15;;;;;;;;;;5013195;28;20687;-87
2023/07/26 09:28:03;;;;;;;10.65;3.30;;;;;;;;;;5010886;28;20231;-87
2023/07/26 09:30:30;;;;;;;6.45;2.80;;;;;;;;;;5014563;28;20291;-89
2023/07/26 09:32:58;;;;;;;7.35;3.03;;;;;;;;;;5018377;28;20224;-88
2023/07/26 09:35:34;;;;;;;6.70;3.28;;;;;;;;;;5019204;28;20236;-87
2023/07/26 09:38:11;;;;;;;12.18;3.30;;;;;;;;;;5020471;28;20224;-87
2023/07/26 09:40:42;;;;;;;7.95;2.75;;;;;;;;;;5018991;28;20247;-88
2023/07/26 09:43:08;;;;;;;5.75;2.95;;;;;;;;;;5018704;28;20224;-86
2023/07/26 09:45:36;;;;;;;12.23;3.42;;;;;;;;;;5016862;28;20330;-87
2023/07/26 09:48:05;;;;;;;6.43;3.10;;;;;;;;;;5014916;28;20216;-86
2023/07/26 09:50:35;;;;;;;5.25;3.00;;;;;;;;;;5007610;28;20224;-88
2023/07/26 09:53:05;;;;;;;5.70;3.25;;;;;;;;;;5011125;28;20297;-87
2023/07/26 09:55:35;;;;;;;7.22;3.92;;;;;;;;;;5010487;28;20264;-88
2023/07/26 09:58:06;;;;;;;6.97;3.28;;;;;;;;;;5007323;28;20315;-88
2023/07/26 10:00:33;;;;;;;11.13;3.20;;;;;;;;;;5009148;28;20728;-87
2023/07/26 10:03:00;;;;;;;7.90;3.38;;;;;;;;;;5008669;28;20223;-90
2023/07/26 10:05:31;;;;;;;4.15;3.33;;;;;;;;;;4992509;28;20228;-88
2023/07/26 10:08:05;;;;;;;5.50;2.90;;;;;;;;;;4989992;28;20220;-87
2023/07/26 10:10:32;;;;;;;7.45;4.00;;;;;;;;;;4990361;28;20236;-88
2023/07/26 10:13:00;;;;;;;8.65;3.55;;;;;;;;;;4990431;28;20719;-90
2023/07/26 10:15:31;;;;;;;6.50;2.85;;;;;;;;;;5011013;28;20271;-89
2023/07/26 10:18:00;;;;;;;11.13;3.08;;;;;;;;;;5009399;28;20224;-87
2023/07/26 10:20:27;;;;;;;3.45;2.80;;;;;;;;;;5011084;28;20311;-86
2023/07/26 10:22:56;;;;;;;6.57;3.53;;;;;;;;;;5010516;28;20255;-87
2023/07/26 10:25:27;;;;;;;7.53;2.92;;;;;;;;;;5013452;28;20236;-86
2023/07/26 10:27:54;;;;;;;4.32;2.90;;;;;;;;;;5010320;28;20264;-85
2023/07/26 10:30:21;;;;;;;9.82;3.42;;;;;;;;;;5012973;28;20286;-86
2023/07/26 10:32:55;;;;;;;4.70;2.92;;;;;;;;;;5010350;28;20293;-84
2023/07/26 10:35:29;;;;;;;4.47;2.55;;;;;;;;;;5017447;28;20657;-84
2023/07/26 10:37:59;;;;;;;9.43;2.67;;;;;;;;;;5018164;28;20250;-86
2023/07/26 10:40:30;;;;;;;10.13;2.97;;;;;;;;;;5019662;28;20691;-85
2023/07/26 10:42:59;;;;;;;4.93;2.58;;;;;;;;;;5014732;28;20313;-84
2023/07/26 10:45:38;;;;;;;9.20;3.30;;;;;;;;;;5016671;28;20286;-87
2023/07/26 10:48:12;;;;;;;9.45;3.30;;;;;;;;;;5018296;28;20227;-86
2023/07/26 10:50:39;;;;;;;8.38;2.63;;;;;;;;;;5014679;28;20223;-85
2023/07/26 10:53:21;;;;;;;5.18;2.35;;;;;;;;;;5010452;28;20232;-87
2023/07/26 10:55:51;;;;;;;3.35;2.50;;;;;;;;;;5007850;28;20712;-86
2023/07/26 10:58:19;;;;;;;10.07;2.83;;;;;;;;;;5011397;28;20271;-87
2023/07/26 11:00:46;;;;;;;8.68;3.17;;;;;;;;;;5013265;28;20224;-87
2023/07/26 11:03:15;;;;;;;8.68;3.25;;;;;;;;;;5019223;28;20224;-85
2023/07/26 11:05:54;;;;;;;2.60;2.40;;;;;;;;;;5017997;28;20292;-85
2023/07/26 11:08:22;;;;;;;5.05;2.78;;;;;;;;;;5011907;28;20338;-86
2023/07/26 11:10:51;;;;;;;8.73;3.63;;;;;;;;;;5011655;28;20288;-84
2023/07/26 11:13:18;;;;;;;5.97;2.83;;;;;;;;;;5011709;28;20278;-85
2023/07/26 11:15:46;;;;;;;4.65;2.97;;;;;;;;;;5011840;28;20240;-85
2023/07/26 11:18:15;;;;;;;5.85;2.90;;;;;;;;;;5012521;28;20235;-86
2023/07/26 11:20:46;;;;;;;8.23;3.03;;;;;;;;;;5010544;28;20259;-86
2023/07/26 11:23:17;;;;;;;8.45;3.17;;;;;;;;;;5010868;28;20231;-88
2023/07/26 11:25:43;;;;;;;6.88;3.10;;;;;;;;;;5009696;28;20319;-88
2023/07/26 11:28:10;;;;;;;3.17;2.92;;;;;;;;;;5010261;28;20228;-86
2023/07/26 11:30:41;;;;;;;5.93;3.03;;;;;;;;;;5010690;28;20282;-86
2023/07/26 11:33:09;;;;;;;5.50;2.78;;;;;;;;;;5009657;28;20240;-85
2023/07/26 11:35:41;;;;;;;7.05;2.78;;;;;;;;;;5010668;28;20220;-85
2023/07/26 11:38:13;;;;;;;11.00;2.97;;;;;;;;;;5010250;28;20220;-86
2023/07/26 11:40:42;;;;;;;6.70;2.88;;;;;;;;;;5009213;28;20228;-87
2023/07/26 11:43:15;;;;;;;2.58;2.38;;;;;;;;;;5010588;28;20768;-87
2023/07/26 11:45:47;;;;;;;6.63;2.75;;;;;;;;;;4990483;28;20248;-87
2023/07/26 11:48:15;;;;;;;6.25;3.05;;;;;;;;;;4993766;28;20228;-88
2023/07/26 11:50:46;;;;;;;3.90;2.70;;;;;;;;;;4990754;28;20362;-88
2023/07/26 11:53:21;;;;;;;13.57;3.10;;;;;;;;;;4991431;28;20221;-87
2023/07/26 11:55:52;;;;;;;5.18;3.55;;;;;;;;;;4989703;28;20236;-89
2023/07/26 11:58:19;;;;;;;6.80;3.22;;;;;;;;;;5001908;28;20303;-88
2023/07/26 12:00:48;;;;;;;7.13;2.58;;;;;;;;;;5009989;28;20224;-88
2023/07/26 12:03:23;;;;;;;9.05;2.85;;;;;;;;;;5009944;28;20227;-87
2023/07/26 12:05:53;;;;;;;9.25;2.83;;;;;;;;;;5009581;28;20247;-87
2023/07/26 12:08:20;;;;;;;3.72;2.50;;;;;;;;;;5010488;28;20302;-88
2023/07/26 12:10:47;;;;;;;6.03;2.97;;;;;;;;;;5007873;28;20223;-87
2023/07/26 12:13:20;;;;;;;9.98;3.08;;;;;;;;;;5010132;28;20316;-88
2023/07/26 12:15:51;;;;;;;8.23;2.95;;;;;;;;;;5008594;28;20274;-88
2023/07/26 12:18:19;;;;;;;10.32;3.05;;;;;;;;;;5009537;28;20289;-87
2023/07/26 12:20:57;;;;;;;9.77;2.92;;;;;;;;;;5008600;28;20256;-89
2023/07/26 12:23:24;;;;;;;4.75;2.67;;;;;;;;;;5009598;28;20298;-88
2023/07/26 12:25:52;;;;;;;12.40;3.22;;;;;;;;;;5008507;28;20681;-89
2023/07/26 12:28:19;;;;;;;10.70;2.38;;;;;;;;;;5009488;28;20227;-88
2023/07/26 12:30:52;;;;;;;11.15;2.70;;;;;;;;;;5009635;28;20232;-89
2023/07/26 12:33:20;;;;;;;10.02;3.25;;;;;;;;;;5008923;28;20264;-89
2023/07/26 12:36:01;;;;;;;7.55;2.42;;;;;;;;;;5009017;28;20232;-88
2023/07/26 12:38:31;;;;;;;5.57;3.30;;;;;;;;;;5008942;28;20212;-88
2023/07/26 12:41:00;;;;;;;5.45;2.90;;;;;;;;;;5008428;28;20319;-89
2023/07/26 12:43:29;;;;;;;5.18;2.70;;;;;;;;;;5009336;28;20219;-88
2023/07/26 12:45:58;;;;;;;6.25;3.28;;;;;;;;;;5008636;28;20236;-89
2023/07/26 12:48:26;;;;;;;7.57;3.25;;;;;;;;;;5009304;28;20724;-88
2023/07/26 12:50:54;;;;;;;4.03;3.05;;;;;;;;;;5009234;28;20294;-88
2023/07/26 12:53:24;;;;;;;11.45;3.08;;;;;;;;;;5009543;28;20740;-89
2023/07/26 12:55:54;;;;;;;7.65;3.97;;;;;;;;;;5008549;28;20243;-89
2023/07/26 12:58:20;;;;;;;11.68;3.20;;;;;;;;;;5008858;28;20220;-87
2023/07/26 13:00:48;;;;;;;9.73;3.15;;;;;;;;;;5008704;28;20234;-89
2023/07/26 13:03:15;;;;;;;5.35;3.05;;;;;;;;;;5008766;28;20223;-88
2023/07/26 13:05:50;;;;;;;8.00;3.00;;;;;;;;;;5008994;28;20342;-89
2023/07/26 13:08:17;;;;;;;6.72;2.45;;;;;;;;;;5009663;28;20604;-87
2023/07/26 13:10:49;;;;;;;15.13;3.15;;;;;;;;;;5009066;28;20299;-90
2023/07/26 13:13:18;;;;;;;4.43;3.13;;;;;;;;;;5008902;28;20299;-89
2023/07/26 13:15:45;;;;;;;6.03;3.05;;;;;;;;;;5009214;28;20641;-88
2023/07/26 13:18:16;;;;;;;6.97;2.80;;;;;;;;;;5008944;28;20989;-87
2023/07/26 13:20:42;;;;;;;3.08;2.88;;;;;;;;;;5009773;28;20279;-86
2023/07/26 13:23:10;;;;;;;6.57;3.08;;;;;;;;;;5006689;28;20305;-87
2023/07/26 13:25:37;;;;;;;7.88;2.72;;;;;;;;;;4997063;28;20338;-88
2023/07/26 13:28:05;;;;;;;2.90;2.65;;;;;;;;;;4991449;28;20229;-89
2023/07/26 13:30:33;;;;;;;4.45;2.67;;;;;;;;;;4988722;28;20231;-88
2023/07/26 13:33:02;;;;;;;10.93;2.70;;;;;;;;;;4990341;28;20219;-88
2023/07/26 13:35:32;;;;;;;5.30;2.78;;;;;;;;;;4994707;28;20232;-88
2023/07/26 13:37:59;;;;;;;9.98;2.78;;;;;;;;;;5009955;28;20267;-88
2023/07/26 13:40:27;;;;;;;9.52;3.08;;;;;;;;;;4997255;28;20228;-87
2023/07/26 13:42:57;;;;;;;11.65;2.78;;;;;;;;;;4990205;28;20235;-87
2023/07/26 13:45:24;;;;;;;9.77;2.95;;;;;;;;;;4989081;28;20250;-87
2023/07/26 13:47:53;;;;;;;4.45;2.63;;;;;;;;;;4990306;28;20690;-88
2023/07/26 13:50:20;;;;;;;10.45;3.00;;;;;;;;;;4989270;28;20243;-88
2023/07/26 13:52:47;;;;;;;2.60;2.35;;;;;;;;;;4988537;28;20227;-87
2023/07/26 13:55:15;;;;;;;6.05;2.63;;;;;;;;;;4988364;28;20248;-87
2023/07/26 13:57:43;;;;;;;5.43;2.90;;;;;;;;;;5000146;28;20657;-87
2023/07/26 14:00:10;;;;;;;7.40;2.72;;;;;;;;;;5013229;28;20290;-88
2023/07/26 14:02:37;;;;;;;3.95;2.45;;;;;;;;;;5019136;28;20230;-87
2023/07/26 14:05:06;;;;;;;3.30;2.20;;;;;;;;;;5033058;28;20623;-88
2023/07/26 14:07:33;;;;;;;8.35;3.15;;;;;;;;;;5034032;28;20222;-89
2023/07/26 14:10:00;;;;;;;3.55;2.45;;;;;;;;;;5034944;28;20283;-88
2023/07/26 14:12:28;;;;;;;10.00;2.75;;;;;;;;;;5032853;28;20220;-87
2023/07/26 14:14:55;;;;;;;3.75;2.65;;;;;;;;;;5020153;28;20254;-87
2023/07/26 14:17:22;;;;;;;6.45;2.63;;;;;;;;;;5013394;28;20330;-89
2023/07/26 14:19:52;;;;;;;3.80;2.60;;;;;;;;;;5014239;28;20227;-89
2023/07/26 14:22:21;;;;;;;3.85;2.80;;;;;;;;;;5013282;28;20322;-87
2023/07/26 14:24:48;;;;;;;5.13;2.70;;;;;;;;;;5012737;28;20216;-90
2023/07/26 14:27:24;;;;;;;4.70;3.17;;;;;;;;;;5013039;28;20740;-87
2023/07/26 14:29:50;;;;;;;3.38;3.08;;;;;;;;;;5012870;28;20305;-87
2023/07/26 14:32:18;;;;;;;5.20;3.20;;;;;;;;;;5012646;28;20282;-87
2023/07/26 14:34:46;;;;;;;3.15;2.55;;;;;;;;;;5012914;28;20235;-87
2023/07/26 14:37:13;;;;;;;7.32;3.03;;;;;;;;;;5013558;28;20220;-87
2023/07/26 14:39:43;;;;;;;3.78;2.75;;;;;;;;;;5014845;28;20746;-88
2023/07/26 14:42:12;;;;;;;3.70;2.67;;;;;;;;;;5013568;28;20224;-88
2023/07/26 14:44:39;;;;;;;6.88;2.22;;;;;;;;;;5014119;28;20220;-87
2023/07/26 14:47:07;;;;;;;6.95;3.33;;;;;;;;;;5016851;28;20244;-86